sensor_id;sensor_type;location;lat;lon;timestamp;pressure;altitude;pressure_sealevel;temperature;humidity
21361;BME280;10839;43.206;23.550;2023-01-26T00:00:55;97977.19;;;-0.24;100.00
21361;BME280;10839;43.206;23.550;2023-01-26T00:03:22;97960.69;;;-0.40;100.00
21361;BME280;10839;43.206;23.550;2023-01-26T00:05:48;97979.41;;;-0.30;100.00
21361;BME280;10839;43.206;23.550;2023-01-26T00:08:14;97970.94;;;-0.23;100.00
21361;BME280;10839;43.206;23.550;2023-01-26T00:10:41;97977.72;;;0.05;100.00
21361;BME280;10839;43.206;23.550;2023-01-26T00:13:17;97963.38;;;-0.04;100.00
21361;BME280;10839;43.206;23.550;2023-01-26T00:15:47;97972.06;;;-0.14;100.00
21361;BME280;10839;43.206;23.550;2023-01-26T00:18:14;97960.19;;;0.04;100.00
21361;BME280;10839;43.206;23.550;2023-01-26T00:20:40;97956.63;;;-0.08;100.00
21361;BME280;10839;43.206;23.550;2023-01-26T00:23:06;97967.16;;;0.05;100.00
21361;BME280;10839;43.206;23.550;2023-01-26T00:25:32;97957.69;;;-0.10;100.00
21361;BME280;10839;43.206;23.550;2023-01-26T00:27:57;97968.78;;;0.19;100.00
21361;BME280;10839;43.206;23.550;2023-01-26T00:30:23;97968.69;;;-0.04;100.00
21361;BME280;10839;43.206;23.550;2023-01-26T00:32:49;97958.28;;;-0.07;100.00
21361;BME280;10839;43.206;23.550;2023-01-26T00:35:15;97963.81;;;-0.10;100.00
21361;BME280;10839;43.206;23.550;2023-01-26T00:37:41;97968.78;;;-0.05;100.00
21361;BME280;10839;43.206;23.550;2023-01-26T00:40:08;97965.34;;;0.06;100.00
21361;BME280;10839;43.206;23.550;2023-01-26T00:42:35;97970.28;;;-0.14;100.00
21361;BME280;10839;43.206;23.550;2023-01-26T00:45:01;97971.00;;;-0.12;100.00
21361;BME280;10839;43.206;23.550;2023-01-26T00:47:27;97982.88;;;-0.30;100.00
21361;BME280;10839;43.206;23.550;2023-01-26T00:49:53;97971.47;;;-0.43;100.00
21361;BME280;10839;43.206;23.550;2023-01-26T00:52:18;97962.28;;;-0.37;100.00
21361;BME280;10839;43.206;23.550;2023-01-26T00:54:45;97958.78;;;-0.25;100.00
21361;BME280;10839;43.206;23.550;2023-01-26T00:57:13;97960.78;;;-0.29;100.00
21361;BME280;10839;43.206;23.550;2023-01-26T00:59:41;97951.56;;;-0.23;100.00
21361;BME280;10839;43.206;23.550;2023-01-26T01:02:06;97942.13;;;-0.15;100.00
21361;BME280;10839;43.206;23.550;2023-01-26T01:04:32;97927.75;;;-0.23;100.00
21361;BME280;10839;43.206;23.550;2023-01-26T01:06:59;97930.25;;;-0.45;100.00
21361;BME280;10839;43.206;23.550;2023-01-26T01:09:25;97919.44;;;-0.30;100.00
21361;BME280;10839;43.206;23.550;2023-01-26T01:11:51;97931.16;;;-0.21;100.00
21361;BME280;10839;43.206;23.550;2023-01-26T01:14:17;97928.31;;;-0.31;100.00
21361;BME280;10839;43.206;23.550;2023-01-26T01:16:43;97920.88;;;-0.13;100.00
21361;BME280;10839;43.206;23.550;2023-01-26T01:19:15;97919.97;;;0.12;100.00
21361;BME280;10839;43.206;23.550;2023-01-26T01:21:43;97922.38;;;-0.22;100.00
21361;BME280;10839;43.206;23.550;2023-01-26T01:24:10;97909.09;;;-0.33;100.00
21361;BME280;10839;43.206;23.550;2023-01-26T01:26:38;97906.03;;;-0.39;100.00
21361;BME280;10839;43.206;23.550;2023-01-26T01:29:04;97911.78;;;-0.22;100.00
21361;BME280;10839;43.206;23.550;2023-01-26T01:31:30;97907.75;;;-0.15;100.00
21361;BME280;10839;43.206;23.550;2023-01-26T01:33:56;97895.50;;;-0.16;100.00
21361;BME280;10839;43.206;23.550;2023-01-26T01:36:24;97902.03;;;-0.09;100.00
21361;BME280;10839;43.206;23.550;2023-01-26T01:38:50;97897.97;;;-0.02;100.00
21361;BME280;10839;43.206;23.550;2023-01-26T01:41:19;97905.84;;;-0.13;100.00
21361;BME280;10839;43.206;23.550;2023-01-26T01:43:47;97906.66;;;0.00;100.00
21361;BME280;10839;43.206;23.550;2023-01-26T01:49:02;97899.53;;;-0.23;100.00
21361;BME280;10839;43.206;23.550;2023-01-26T01:51:36;97907.09;;;-0.06;100.00
21361;BME280;10839;43.206;23.550;2023-01-26T01:54:08;97909.97;;;-0.09;100.00
21361;BME280;10839;43.206;23.550;2023-01-26T01:56:41;97890.44;;;-0.19;100.00
21361;BME280;10839;43.206;23.550;2023-01-26T01:59:09;97898.25;;;-0.17;100.00
21361;BME280;10839;43.206;23.550;2023-01-26T02:01:35;97893.44;;;0.00;100.00
21361;BME280;10839;43.206;23.550;2023-01-26T02:04:04;97891.59;;;-0.23;100.00
21361;BME280;10839;43.206;23.550;2023-01-26T02:06:41;97891.13;;;-0.04;100.00
21361;BME280;10839;43.206;23.550;2023-01-26T02:09:10;97887.19;;;0.02;100.00
21361;BME280;10839;43.206;23.550;2023-01-26T02:11:58;97890.22;;;-0.16;100.00
21361;BME280;10839;43.206;23.550;2023-01-26T02:14:25;97891.25;;;-0.06;100.00
21361;BME280;10839;43.206;23.550;2023-01-26T02:16:53;97899.09;;;-0.17;100.00
21361;BME280;10839;43.206;23.550;2023-01-26T02:19:49;97891.16;;;-0.17;100.00
21361;BME280;10839;43.206;23.550;2023-01-26T02:22:35;97881.53;;;-0.18;100.00
21361;BME280;10839;43.206;23.550;2023-01-26T02:25:09;97880.22;;;-0.36;100.00
21361;BME280;10839;43.206;23.550;2023-01-26T02:27:37;97887.81;;;-0.19;100.00
21361;BME280;10839;43.206;23.550;2023-01-26T02:30:04;97873.38;;;-0.15;100.00
21361;BME280;10839;43.206;23.550;2023-01-26T02:32:31;97876.72;;;-0.24;100.00
21361;BME280;10839;43.206;23.550;2023-01-26T02:34:58;97867.53;;;-0.31;100.00
21361;BME280;10839;43.206;23.550;2023-01-26T02:37:23;97844.53;;;-0.18;100.00
21361;BME280;10839;43.206;23.550;2023-01-26T02:39:58;97851.50;;;-0.17;100.00
21361;BME280;10839;43.206;23.550;2023-01-26T02:42:26;97848.41;;;-0.34;100.00
21361;BME280;10839;43.206;23.550;2023-01-26T02:45:04;97839.97;;;-0.39;100.00
21361;BME280;10839;43.206;23.550;2023-01-26T02:47:30;97841.75;;;-0.40;100.00
21361;BME280;10839;43.206;23.550;2023-01-26T02:49:56;97838.69;;;-0.34;100.00
21361;BME280;10839;43.206;23.550;2023-01-26T02:52:25;97835.44;;;-0.14;100.00
21361;BME280;10839;43.206;23.550;2023-01-26T02:54:56;97817.84;;;-0.15;100.00
21361;BME280;10839;43.206;23.550;2023-01-26T02:57:42;97816.84;;;-0.25;100.00
21361;BME280;10839;43.206;23.550;2023-01-26T03:00:17;97820.91;;;-0.32;100.00
21361;BME280;10839;43.206;23.550;2023-01-26T03:02:45;97818.34;;;-0.33;100.00
21361;BME280;10839;43.206;23.550;2023-01-26T03:05:12;97807.91;;;-0.58;100.00
21361;BME280;10839;43.206;23.550;2023-01-26T03:07:39;97814.59;;;-0.42;100.00
21361;BME280;10839;43.206;23.550;2023-01-26T03:10:06;97812.97;;;-0.32;100.00
21361;BME280;10839;43.206;23.550;2023-01-26T03:12:33;97820.09;;;-0.45;100.00
21361;BME280;10839;43.206;23.550;2023-01-26T03:14:59;97808.06;;;-0.49;100.00
21361;BME280;10839;43.206;23.550;2023-01-26T03:17:44;97814.75;;;-0.56;100.00
21361;BME280;10839;43.206;23.550;2023-01-26T03:20:10;97803.84;;;-0.51;100.00
21361;BME280;10839;43.206;23.550;2023-01-26T03:22:55;97813.06;;;-0.57;100.00
21361;BME280;10839;43.206;23.550;2023-01-26T03:25:42;97782.53;;;-0.61;100.00
21361;BME280;10839;43.206;23.550;2023-01-26T03:28:30;97796.03;;;-0.53;100.00
21361;BME280;10839;43.206;23.550;2023-01-26T03:30:56;97796.47;;;-0.59;100.00
21361;BME280;10839;43.206;23.550;2023-01-26T03:33:23;97790.88;;;-0.31;100.00
21361;BME280;10839;43.206;23.550;2023-01-26T03:35:52;97794.50;;;-0.44;100.00
21361;BME280;10839;43.206;23.550;2023-01-26T03:38:20;97787.59;;;-0.58;100.00
21361;BME280;10839;43.206;23.550;2023-01-26T03:40:49;97790.50;;;-0.50;100.00
21361;BME280;10839;43.206;23.550;2023-01-26T03:43:34;97795.50;;;-0.58;100.00
21361;BME280;10839;43.206;23.550;2023-01-26T03:46:18;97782.38;;;-0.47;100.00
21361;BME280;10839;43.206;23.550;2023-01-26T03:49:04;97785.59;;;-0.31;100.00
21361;BME280;10839;43.206;23.550;2023-01-26T03:51:52;97775.31;;;-0.12;100.00
21361;BME280;10839;43.206;23.550;2023-01-26T03:54:37;97769.03;;;-0.22;100.00
21361;BME280;10839;43.206;23.550;2023-01-26T03:57:23;97779.78;;;-0.12;100.00
21361;BME280;10839;43.206;23.550;2023-01-26T03:59:49;97774.88;;;-0.06;100.00
21361;BME280;10839;43.206;23.550;2023-01-26T04:02:19;97766.88;;;-0.17;100.00
21361;BME280;10839;43.206;23.550;2023-01-26T04:05:06;97767.59;;;-0.26;100.00
21361;BME280;10839;43.206;23.550;2023-01-26T04:08:03;97768.88;;;0.03;100.00
21361;BME280;10839;43.206;23.550;2023-01-26T04:10:45;97769.34;;;-0.03;100.00
21361;BME280;10839;43.206;23.550;2023-01-26T04:13:11;97763.91;;;-0.12;100.00
21361;BME280;10839;43.206;23.550;2023-01-26T04:16:00;97752.38;;;-0.35;100.00
21361;BME280;10839;43.206;23.550;2023-01-26T04:18:45;97751.72;;;-0.26;100.00
21361;BME280;10839;43.206;23.550;2023-01-26T04:21:30;97750.81;;;-0.14;100.00
21361;BME280;10839;43.206;23.550;2023-01-26T04:24:03;97737.59;;;-0.14;100.00
21361;BME280;10839;43.206;23.550;2023-01-26T04:26:35;97740.38;;;-0.04;100.00
21361;BME280;10839;43.206;23.550;2023-01-26T04:29:07;97742.19;;;-0.05;100.00
21361;BME280;10839;43.206;23.550;2023-01-26T04:31:34;97738.38;;;-0.24;100.00
21361;BME280;10839;43.206;23.550;2023-01-26T04:34:01;97754.16;;;-0.12;100.00
21361;BME280;10839;43.206;23.550;2023-01-26T04:36:28;97745.72;;;-0.17;100.00
21361;BME280;10839;43.206;23.550;2023-01-26T04:38:54;97752.72;;;-0.16;100.00
21361;BME280;10839;43.206;23.550;2023-01-26T04:41:21;97745.16;;;-0.20;100.00
21361;BME280;10839;43.206;23.550;2023-01-26T04:43:55;97736.25;;;-0.19;100.00
21361;BME280;10839;43.206;23.550;2023-01-26T04:46:22;97722.94;;;-0.07;100.00
21361;BME280;10839;43.206;23.550;2023-01-26T04:48:49;97724.56;;;-0.17;100.00
21361;BME280;10839;43.206;23.550;2023-01-26T04:51:20;97722.38;;;0.01;100.00
21361;BME280;10839;43.206;23.550;2023-01-26T04:53:47;97717.16;;;-0.12;100.00
21361;BME280;10839;43.206;23.550;2023-01-26T04:56:40;97726.56;;;0.03;100.00
21361;BME280;10839;43.206;23.550;2023-01-26T04:59:08;97729.44;;;-0.11;100.00
21361;BME280;10839;43.206;23.550;2023-01-26T05:01:39;97726.84;;;0.12;100.00
21361;BME280;10839;43.206;23.550;2023-01-26T05:04:07;97726.53;;;-0.19;100.00
21361;BME280;10839;43.206;23.550;2023-01-26T05:06:36;97731.09;;;-0.10;100.00
21361;BME280;10839;43.206;23.550;2023-01-26T05:09:04;97718.59;;;-0.08;100.00
21361;BME280;10839;43.206;23.550;2023-01-26T05:11:32;97720.28;;;-0.07;100.00
21361;BME280;10839;43.206;23.550;2023-01-26T05:14:30;97722.16;;;0.15;100.00
21361;BME280;10839;43.206;23.550;2023-01-26T05:17:16;97727.09;;;0.20;100.00
21361;BME280;10839;43.206;23.550;2023-01-26T05:20:16;97715.16;;;0.03;100.00
21361;BME280;10839;43.206;23.550;2023-01-26T05:23:04;97711.19;;;-0.03;100.00
21361;BME280;10839;43.206;23.550;2023-01-26T05:25:50;97716.31;;;-0.12;100.00
21361;BME280;10839;43.206;23.550;2023-01-26T05:28:16;97714.78;;;-0.04;100.00
21361;BME280;10839;43.206;23.550;2023-01-26T05:30:42;97719.34;;;-0.06;100.00
21361;BME280;10839;43.206;23.550;2023-01-26T05:33:09;97719.00;;;-0.01;100.00
21361;BME280;10839;43.206;23.550;2023-01-26T05:35:36;97720.34;;;0.16;100.00
21361;BME280;10839;43.206;23.550;2023-01-26T05:38:04;97715.53;;;0.10;100.00
21361;BME280;10839;43.206;23.550;2023-01-26T05:40:32;97714.38;;;0.25;100.00
21361;BME280;10839;43.206;23.550;2023-01-26T05:42:58;97712.16;;;0.08;100.00
21361;BME280;10839;43.206;23.550;2023-01-26T05:45:42;97706.63;;;0.11;100.00
21361;BME280;10839;43.206;23.550;2023-01-26T05:48:10;97706.19;;;0.17;100.00
21361;BME280;10839;43.206;23.550;2023-01-26T05:50:36;97714.13;;;0.28;100.00
21361;BME280;10839;43.206;23.550;2023-01-26T05:53:19;97720.34;;;0.16;100.00
21361;BME280;10839;43.206;23.550;2023-01-26T05:55:46;97717.69;;;0.05;100.00
21361;BME280;10839;43.206;23.550;2023-01-26T05:58:13;97706.63;;;0.11;100.00
21361;BME280;10839;43.206;23.550;2023-01-26T06:00:39;97699.69;;;0.32;100.00
21361;BME280;10839;43.206;23.550;2023-01-26T06:03:11;97711.03;;;0.67;100.00
21361;BME280;10839;43.206;23.550;2023-01-26T06:05:36;97714.16;;;0.50;100.00
21361;BME280;10839;43.206;23.550;2023-01-26T06:08:11;97707.91;;;0.40;100.00
21361;BME280;10839;43.206;23.550;2023-01-26T06:11:12;97698.25;;;0.28;100.00
21361;BME280;10839;43.206;23.550;2023-01-26T06:14:05;97703.66;;;0.26;100.00
21361;BME280;10839;43.206;23.550;2023-01-26T06:16:32;97689.94;;;0.32;100.00
21361;BME280;10839;43.206;23.550;2023-01-26T06:18:59;97679.94;;;0.14;100.00
21361;BME280;10839;43.206;23.550;2023-01-26T06:21:25;97677.94;;;0.28;100.00
21361;BME280;10839;43.206;23.550;2023-01-26T06:23:51;97677.09;;;0.28;100.00
21361;BME280;10839;43.206;23.550;2023-01-26T06:26:18;97672.97;;;0.13;100.00
21361;BME280;10839;43.206;23.550;2023-01-26T06:28:45;97675.97;;;0.08;100.00
21361;BME280;10839;43.206;23.550;2023-01-26T06:31:12;97672.50;;;0.19;100.00
21361;BME280;10839;43.206;23.550;2023-01-26T06:33:39;97686.22;;;0.24;100.00
21361;BME280;10839;43.206;23.550;2023-01-26T06:36:09;97683.94;;;0.19;100.00
21361;BME280;10839;43.206;23.550;2023-01-26T06:38:37;97692.13;;;0.27;100.00
21361;BME280;10839;43.206;23.550;2023-01-26T06:41:05;97687.19;;;0.34;100.00
21361;BME280;10839;43.206;23.550;2023-01-26T06:43:33;97683.34;;;0.38;100.00
21361;BME280;10839;43.206;23.550;2023-01-26T06:46:01;97677.09;;;0.28;100.00
21361;BME280;10839;43.206;23.550;2023-01-26T06:48:32;97677.28;;;0.14;100.00
21361;BME280;10839;43.206;23.550;2023-01-26T06:54:01;97674.69;;;0.25;100.00
21361;BME280;10839;43.206;23.550;2023-01-26T06:56:27;97673.63;;;0.38;100.00
21361;BME280;10839;43.206;23.550;2023-01-26T06:59:07;97671.91;;;0.37;100.00
21361;BME280;10839;43.206;23.550;2023-01-26T07:01:58;97667.44;;;0.16;100.00
21361;BME280;10839;43.206;23.550;2023-01-26T07:04:25;97659.38;;;0.17;100.00
21361;BME280;10839;43.206;23.550;2023-01-26T07:06:52;97656.81;;;-0.07;100.00
21361;BME280;10839;43.206;23.550;2023-01-26T07:09:17;97660.94;;;0.09;100.00
21361;BME280;10839;43.206;23.550;2023-01-26T07:11:43;97658.31;;;0.20;100.00
21361;BME280;10839;43.206;23.550;2023-01-26T07:14:09;97670.53;;;-0.02;100.00
21361;BME280;10839;43.206;23.550;2023-01-26T07:16:34;97653.97;;;0.08;100.00
21361;BME280;10839;43.206;23.550;2023-01-26T07:19:00;97652.31;;;0.18;100.00
21361;BME280;10839;43.206;23.550;2023-01-26T07:21:26;97651.13;;;0.22;100.00
21361;BME280;10839;43.206;23.550;2023-01-26T07:23:52;97649.41;;;0.21;100.00
21361;BME280;10839;43.206;23.550;2023-01-26T07:26:18;97646.19;;;0.28;100.00
21361;BME280;10839;43.206;23.550;2023-01-26T07:28:45;97650.28;;;0.43;100.00
21361;BME280;10839;43.206;23.550;2023-01-26T07:31:11;97651.34;;;0.41;100.00
21361;BME280;10839;43.206;23.550;2023-01-26T07:33:37;97664.59;;;0.41;100.00
21361;BME280;10839;43.206;23.550;2023-01-26T07:36:03;97658.31;;;0.20;100.00
21361;BME280;10839;43.206;23.550;2023-01-26T07:38:30;97645.59;;;0.25;100.00
21361;BME280;10839;43.206;23.550;2023-01-26T07:40:56;97643.41;;;0.30;100.00
21361;BME280;10839;43.206;23.550;2023-01-26T07:43:22;97647.25;;;0.37;100.00
21361;BME280;10839;43.206;23.550;2023-01-26T07:45:53;97645.34;;;0.28;100.00
21361;BME280;10839;43.206;23.550;2023-01-26T07:48:22;97652.06;;;0.32;100.00
21361;BME280;10839;43.206;23.550;2023-01-26T07:50:49;97644.38;;;0.40;100.00
21361;BME280;10839;43.206;23.550;2023-01-26T07:53:15;97639.09;;;0.40;100.00
21361;BME280;10839;43.206;23.550;2023-01-26T07:55:47;97628.50;;;0.40;100.00
21361;BME280;10839;43.206;23.550;2023-01-26T07:58:14;97639.44;;;0.35;100.00
21361;BME280;10839;43.206;23.550;2023-01-26T08:00:40;97641.84;;;0.60;100.00
21361;BME280;10839;43.206;23.550;2023-01-26T08:03:06;97634.13;;;0.68;100.00
21361;BME280;10839;43.206;23.550;2023-01-26T08:05:32;97634.75;;;0.50;100.00
21361;BME280;10839;43.206;23.550;2023-01-26T08:07:59;97632.84;;;0.30;100.00
21361;BME280;10839;43.206;23.550;2023-01-26T08:10:25;97633.28;;;0.24;100.00
21361;BME280;10839;43.206;23.550;2023-01-26T08:12:52;97625.34;;;0.24;100.00
21361;BME280;10839;43.206;23.550;2023-01-26T08:15:17;97618.28;;;0.46;100.00
21361;BME280;10839;43.206;23.550;2023-01-26T08:17:43;97619.59;;;0.41;100.00
21361;BME280;10839;43.206;23.550;2023-01-26T08:20:10;97620.94;;;0.13;100.00
21361;BME280;10839;43.206;23.550;2023-01-26T08:22:38;97612.00;;;0.14;100.00
21361;BME280;10839;43.206;23.550;2023-01-26T08:25:04;97608.06;;;0.31;100.00
21361;BME280;10839;43.206;23.550;2023-01-26T08:27:30;97609.72;;;0.54;100.00
21361;BME280;10839;43.206;23.550;2023-01-26T08:29:56;97614.06;;;0.44;100.00
21361;BME280;10839;43.206;23.550;2023-01-26T08:32:23;97610.66;;;0.64;100.00
21361;BME280;10839;43.206;23.550;2023-01-26T08:34:49;97611.41;;;0.55;100.00
21361;BME280;10839;43.206;23.550;2023-01-26T08:37:15;97612.59;;;0.62;100.00
21361;BME280;10839;43.206;23.550;2023-01-26T08:39:41;97604.56;;;0.41;100.00
21361;BME280;10839;43.206;23.550;2023-01-26T08:42:08;97606.28;;;0.96;100.00
21361;BME280;10839;43.206;23.550;2023-01-26T08:44:34;97604.44;;;1.07;100.00
21361;BME280;10839;43.206;23.550;2023-01-26T08:47:00;97608.53;;;1.00;100.00
21361;BME280;10839;43.206;23.550;2023-01-26T08:49:25;97599.88;;;1.30;100.00
21361;BME280;10839;43.206;23.550;2023-01-26T08:51:51;97589.38;;;1.60;100.00
21361;BME280;10839;43.206;23.550;2023-01-26T08:54:17;97590.50;;;1.47;100.00
21361;BME280;10839;43.206;23.550;2023-01-26T08:56:43;97581.41;;;1.60;100.00
21361;BME280;10839;43.206;23.550;2023-01-26T08:59:09;97584.91;;;1.81;100.00
21361;BME280;10839;43.206;23.550;2023-01-26T09:01:36;97569.78;;;1.72;100.00
21361;BME280;10839;43.206;23.550;2023-01-26T09:04:02;97572.75;;;1.58;100.00
21361;BME280;10839;43.206;23.550;2023-01-26T09:06:29;97581.66;;;1.98;100.00
21361;BME280;10839;43.206;23.550;2023-01-26T09:08:57;97576.50;;;1.76;100.00
21361;BME280;10839;43.206;23.550;2023-01-26T09:11:23;97573.66;;;1.68;100.00
21361;BME280;10839;43.206;23.550;2023-01-26T09:13:51;97567.63;;;1.87;100.00
21361;BME280;10839;43.206;23.550;2023-01-26T09:16:26;97566.41;;;1.70;100.00
21361;BME280;10839;43.206;23.550;2023-01-26T09:18:52;97574.03;;;1.43;100.00
21361;BME280;10839;43.206;23.550;2023-01-26T09:21:18;97562.53;;;1.74;100.00
21361;BME280;10839;43.206;23.550;2023-01-26T09:23:45;97565.41;;;1.92;100.00
21361;BME280;10839;43.206;23.550;2023-01-26T09:26:11;97567.56;;;1.77;100.00
21361;BME280;10839;43.206;23.550;2023-01-26T09:28:38;97551.03;;;1.64;100.00
21361;BME280;10839;43.206;23.550;2023-01-26T09:31:07;97550.41;;;2.11;100.00
21361;BME280;10839;43.206;23.550;2023-01-26T09:33:33;97553.59;;;1.75;100.00
21361;BME280;10839;43.206;23.550;2023-01-26T09:36:04;97561.09;;;1.70;100.00
21361;BME280;10839;43.206;23.550;2023-01-26T09:38:30;97547.78;;;1.81;100.00
21361;BME280;10839;43.206;23.550;2023-01-26T09:43:59;97546.00;;;1.61;100.00
21361;BME280;10839;43.206;23.550;2023-01-26T09:47:06;97545.31;;;1.48;100.00
21361;BME280;10839;43.206;23.550;2023-01-26T09:52:25;97532.78;;;1.50;100.00
21361;BME280;10839;43.206;23.550;2023-01-26T09:54:54;97525.00;;;1.58;100.00
21361;BME280;10839;43.206;23.550;2023-01-26T09:57:48;97518.31;;;1.33;100.00
21361;BME280;10839;43.206;23.550;2023-01-26T10:02:59;97515.22;;;1.49;100.00
21361;BME280;10839;43.206;23.550;2023-01-26T10:08:14;97512.69;;;1.06;100.00
21361;BME280;10839;43.206;23.550;2023-01-26T10:10:49;97503.44;;;1.42;100.00
21361;BME280;10839;43.206;23.550;2023-01-26T10:13:19;97502.91;;;1.48;100.00
21361;BME280;10839;43.206;23.550;2023-01-26T10:15:58;97490.75;;;1.66;100.00
21361;BME280;10839;43.206;23.550;2023-01-26T10:20:56;97491.44;;;1.38;100.00
21361;BME280;10839;43.206;23.550;2023-01-26T10:23:29;97494.63;;;1.62;100.00
21361;BME280;10839;43.206;23.550;2023-01-26T10:26:05;97480.97;;;1.67;100.00
21361;BME280;10839;43.206;23.550;2023-01-26T10:28:35;97480.56;;;1.41;100.00
21361;BME280;10839;43.206;23.550;2023-01-26T10:31:03;97483.97;;;1.53;100.00
21361;BME280;10839;43.206;23.550;2023-01-26T10:33:32;97487.22;;;1.86;100.00
21361;BME280;10839;43.206;23.550;2023-01-26T10:36:00;97486.25;;;1.87;100.00
21361;BME280;10839;43.206;23.550;2023-01-26T10:41:04;97472.25;;;1.55;100.00
21361;BME280;10839;43.206;23.550;2023-01-26T10:43:34;97471.09;;;1.78;100.00
21361;BME280;10839;43.206;23.550;2023-01-26T10:46:03;97468.44;;;1.18;100.00
21361;BME280;10839;43.206;23.550;2023-01-26T10:48:29;97473.25;;;1.84;100.00
21361;BME280;10839;43.206;23.550;2023-01-26T10:51:13;97455.63;;;1.23;100.00
21361;BME280;10839;43.206;23.550;2023-01-26T10:53:40;97451.41;;;1.71;100.00
21361;BME280;10839;43.206;23.550;2023-01-26T10:56:12;97453.84;;;1.93;100.00
21361;BME280;10839;43.206;23.550;2023-01-26T10:58:54;97450.44;;;2.12;100.00
21361;BME280;10839;43.206;23.550;2023-01-26T11:01:22;97438.53;;;2.06;100.00
21361;BME280;10839;43.206;23.550;2023-01-26T11:04:06;97418.06;;;2.37;100.00
21361;BME280;10839;43.206;23.550;2023-01-26T11:06:37;97413.56;;;2.18;100.00
21361;BME280;10839;43.206;23.550;2023-01-26T11:09:10;97417.78;;;2.21;100.00
21361;BME280;10839;43.206;23.550;2023-01-26T11:11:37;97408.41;;;2.17;100.00
21361;BME280;10839;43.206;23.550;2023-01-26T11:14:17;97415.97;;;1.82;100.00
21361;BME280;10839;43.206;23.550;2023-01-26T11:16:50;97393.69;;;2.03;100.00
21361;BME280;10839;43.206;23.550;2023-01-26T11:19:26;97388.97;;;2.16;100.00
21361;BME280;10839;43.206;23.550;2023-01-26T11:21:58;97386.97;;;1.90;100.00
21361;BME280;10839;43.206;23.550;2023-01-26T11:24:41;97390.81;;;2.25;100.00
21361;BME280;10839;43.206;23.550;2023-01-26T11:35:31;97356.56;;;2.70;100.00
21361;BME280;10839;43.206;23.550;2023-01-26T11:54:55;97343.72;;;2.46;100.00
21361;BME280;10839;43.206;23.550;2023-01-26T12:00:21;97339.81;;;2.31;100.00
21361;BME280;10839;43.206;23.550;2023-01-26T12:02:55;97337.31;;;2.39;100.00
21361;BME280;10839;43.206;23.550;2023-01-26T12:05:26;97333.94;;;2.56;100.00
21361;BME280;10839;43.206;23.550;2023-01-26T12:08:01;97338.28;;;2.38;100.00
21361;BME280;10839;43.206;23.550;2023-01-26T12:10:47;97326.97;;;2.17;100.00
21361;BME280;10839;43.206;23.550;2023-01-26T12:15:46;97312.72;;;2.18;100.00
21361;BME280;10839;43.206;23.550;2023-01-26T12:18:23;97304.63;;;2.10;100.00
21361;BME280;10839;43.206;23.550;2023-01-26T12:20:53;97309.38;;;2.35;100.00
21361;BME280;10839;43.206;23.550;2023-01-26T12:25:59;97306.28;;;2.02;100.00
21361;BME280;10839;43.206;23.550;2023-01-26T12:28:43;97323.88;;;2.31;100.00
21361;BME280;10839;43.206;23.550;2023-01-26T12:31:17;97313.84;;;2.16;100.00
21361;BME280;10839;43.206;23.550;2023-01-26T12:33:49;97312.31;;;1.94;100.00
21361;BME280;10839;43.206;23.550;2023-01-26T12:36:33;97314.13;;;2.22;100.00
21361;BME280;10839;43.206;23.550;2023-01-26T12:39:20;97307.69;;;2.15;100.00
21361;BME280;10839;43.206;23.550;2023-01-26T12:44:40;97297.34;;;2.22;100.00
21361;BME280;10839;43.206;23.550;2023-01-26T12:53:12;97270.25;;;2.18;100.00
21361;BME280;10839;43.206;23.550;2023-01-26T12:58:10;97276.00;;;2.14;100.00
21361;BME280;10839;43.206;23.550;2023-01-26T13:00:37;97270.94;;;2.01;100.00
21361;BME280;10839;43.206;23.550;2023-01-26T13:03:17;97258.53;;;1.92;100.00
21361;BME280;10839;43.206;23.550;2023-01-26T13:16:54;97254.78;;;2.04;100.00
21361;BME280;10839;43.206;23.550;2023-01-26T13:19:50;97261.31;;;2.00;100.00
21361;BME280;10839;43.206;23.550;2023-01-26T13:25:11;97259.38;;;2.02;100.00
21361;BME280;10839;43.206;23.550;2023-01-26T13:33:10;97244.00;;;2.25;100.00
21361;BME280;10839;43.206;23.550;2023-01-26T13:35:37;97247.22;;;2.09;100.00
21361;BME280;10839;43.206;23.550;2023-01-26T13:38:21;97246.66;;;2.15;100.00
21361;BME280;10839;43.206;23.550;2023-01-26T13:40:49;97243.84;;;2.26;100.00
21361;BME280;10839;43.206;23.550;2023-01-26T13:51:07;97232.13;;;2.10;100.00
21361;BME280;10839;43.206;23.550;2023-01-26T13:53:39;97237.47;;;1.91;100.00
21361;BME280;10839;43.206;23.550;2023-01-26T13:56:21;97235.34;;;2.13;100.00
21361;BME280;10839;43.206;23.550;2023-01-26T13:58:48;97231.16;;;2.01;100.00
21361;BME280;10839;43.206;23.550;2023-01-26T14:01:14;97227.81;;;1.80;100.00
21361;BME280;10839;43.206;23.550;2023-01-26T14:03:41;97236.19;;;2.04;100.00
21361;BME280;10839;43.206;23.550;2023-01-26T14:06:19;97230.47;;;2.09;100.00
21361;BME280;10839;43.206;23.550;2023-01-26T14:08:53;97225.72;;;2.12;100.00
21361;BME280;10839;43.206;23.550;2023-01-26T14:11:22;97228.91;;;2.06;100.00
21361;BME280;10839;43.206;23.550;2023-01-26T14:13:53;97223.19;;;2.01;100.00
21361;BME280;10839;43.206;23.550;2023-01-26T14:16:33;97217.19;;;1.80;100.00
21361;BME280;10839;43.206;23.550;2023-01-26T14:19:21;97207.44;;;1.90;100.00
21361;BME280;10839;43.206;23.550;2023-01-26T14:21:52;97222.53;;;1.99;100.00
21361;BME280;10839;43.206;23.550;2023-01-26T14:24:36;97210.38;;;1.87;100.00
21361;BME280;10839;43.206;23.550;2023-01-26T14:27:29;97204.06;;;1.88;100.00
21361;BME280;10839;43.206;23.550;2023-01-26T14:29:56;97202.13;;;1.90;100.00
21361;BME280;10839;43.206;23.550;2023-01-26T14:32:22;97195.28;;;1.97;100.00
21361;BME280;10839;43.206;23.550;2023-01-26T14:34:52;97197.94;;;1.97;100.00
21361;BME280;10839;43.206;23.550;2023-01-26T14:37:18;97195.69;;;1.83;100.00
21361;BME280;10839;43.206;23.550;2023-01-26T14:39:44;97187.91;;;1.72;100.00